Impacts TAF Board INFO
FOR SITUATIONAL AWARENESS. NOT TO BE USED FOR FLIGHT PLANNING PURPOSES.
IDs:

KPHX - Phoenix/Sky Harbor, AZ, US

Issued at 0243 UTC 18 Feb 2018
Updated at 0454 UTC 18 Feb 2018
Potential Impact None Slight Moderate High
Time<<19/05Z 19/06Z 19/07Z 19/08Z 19/09Z 19/10Z 19/11Z 19/12Z 19/13Z 19/14Z 19/15Z 19/16Z 19/17Z
Type PRVL
VIS >6
CIG 60
Cover BKN
FltCat VFR
WX VCSH
WDir 240
WSpd 12
WGst 18

Raw TAF
KPHX 180243Z 1803/1906 VRB04KT P6SM FEW200 BKN250
  FM180500 13004KT P6SM FEW250
  FM182100 24012KT P6SM SCT070 BKN250
  FM190300 24012G18KT P6SM VCSH BKN060 BKN250


METAR Board
Radar Display
Forecast Discussion

FOR SITUATIONAL AWARENESS. NOT TO BE USED FOR FLIGHT PLANNING PURPOSES.